sensor_id;sensor_type;location;lat;lon;timestamp;P1;durP1;ratioP1;P2;durP2;ratioP2
5827;SDS011;42583;50.240;8.444;2023-10-19T00:09:55;4.22;;;2.30;;
5827;SDS011;42583;50.240;8.444;2023-10-19T00:24:56;3.42;;;2.10;;
5827;SDS011;42583;50.240;8.444;2023-10-19T00:39:58;14.20;;;3.60;;
5827;SDS011;42583;50.240;8.444;2023-10-19T00:55:14;228.85;;;7.93;;
5827;SDS011;42583;50.240;8.444;2023-10-19T01:10:16;235.90;;;8.35;;
5827;SDS011;42583;50.240;8.444;2023-10-19T01:25:20;145.53;;;4.43;;
5827;SDS011;42583;50.240;8.444;2023-10-19T01:40:34;152.57;;;6.25;;
5827;SDS011;42583;50.240;8.444;2023-10-19T01:55:36;121.35;;;5.40;;
5827;SDS011;42583;50.240;8.444;2023-10-19T02:10:38;220.70;;;7.30;;
5827;SDS011;42583;50.240;8.444;2023-10-19T02:25:41;250.50;;;7.27;;
5827;SDS011;42583;50.240;8.444;2023-10-19T02:40:42;178.48;;;7.15;;
5827;SDS011;42583;50.240;8.444;2023-10-19T02:55:43;153.68;;;6.60;;
5827;SDS011;42583;50.240;8.444;2023-10-19T03:10:43;227.60;;;9.07;;
5827;SDS011;42583;50.240;8.444;2023-10-19T03:25:44;200.95;;;8.70;;
5827;SDS011;42583;50.240;8.444;2023-10-19T03:41:05;291.30;;;10.50;;
5827;SDS011;42583;50.240;8.444;2023-10-19T03:56:07;202.80;;;9.20;;
5827;SDS011;42583;50.240;8.444;2023-10-19T04:11:10;325.20;;;10.33;;
5827;SDS011;42583;50.240;8.444;2023-10-19T04:26:12;17.45;;;6.72;;
5827;SDS011;42583;50.240;8.444;2023-10-19T04:41:13;13.35;;;6.50;;
5827;SDS011;42583;50.240;8.444;2023-10-19T04:56:15;13.38;;;5.28;;
5827;SDS011;42583;50.240;8.444;2023-10-19T05:11:15;9.95;;;2.95;;
5827;SDS011;42583;50.240;8.444;2023-10-19T05:26:17;16.48;;;4.45;;
5827;SDS011;42583;50.240;8.444;2023-10-19T05:41:17;12.02;;;4.72;;
5827;SDS011;42583;50.240;8.444;2023-10-19T05:56:21;73.70;;;6.95;;
5827;SDS011;42583;50.240;8.444;2023-10-19T06:11:21;301.40;;;11.38;;
5827;SDS011;42583;50.240;8.444;2023-10-19T06:26:22;368.40;;;12.07;;
5827;SDS011;42583;50.240;8.444;2023-10-19T06:41:23;360.42;;;13.23;;
5827;SDS011;42583;50.240;8.444;2023-10-19T06:56:24;487.13;;;14.38;;
5827;SDS011;42583;50.240;8.444;2023-10-19T07:11:25;194.13;;;9.70;;
5827;SDS011;42583;50.240;8.444;2023-10-19T07:26:26;390.35;;;11.68;;
5827;SDS011;42583;50.240;8.444;2023-10-19T07:41:31;552.13;;;16.08;;
5827;SDS011;42583;50.240;8.444;2023-10-19T07:56:36;13.60;;;5.85;;
5827;SDS011;42583;50.240;8.444;2023-10-19T08:11:37;18.80;;;5.53;;
5827;SDS011;42583;50.240;8.444;2023-10-19T08:26:38;360.02;;;9.15;;
5827;SDS011;42583;50.240;8.444;2023-10-19T08:41:39;27.80;;;5.03;;
5827;SDS011;42583;50.240;8.444;2023-10-19T08:56:41;312.40;;;9.55;;
5827;SDS011;42583;50.240;8.444;2023-10-19T09:11:43;14.32;;;5.53;;
5827;SDS011;42583;50.240;8.444;2023-10-19T09:26:44;10.30;;;3.70;;
5827;SDS011;42583;50.240;8.444;2023-10-19T09:41:44;8.43;;;3.90;;
5827;SDS011;42583;50.240;8.444;2023-10-19T09:56:50;9.98;;;5.05;;
5827;SDS011;42583;50.240;8.444;2023-10-19T10:11:55;9.95;;;4.95;;
5827;SDS011;42583;50.240;8.444;2023-10-19T10:26:59;11.90;;;4.65;;
5827;SDS011;42583;50.240;8.444;2023-10-19T10:42:06;11.90;;;4.43;;
5827;SDS011;42583;50.240;8.444;2023-10-19T10:57:08;11.55;;;5.13;;
5827;SDS011;42583;50.240;8.444;2023-10-19T11:12:10;12.27;;;4.80;;
5827;SDS011;42583;50.240;8.444;2023-10-19T11:27:21;9.98;;;5.35;;
5827;SDS011;42583;50.240;8.444;2023-10-19T11:42:31;12.15;;;3.53;;
5827;SDS011;42583;50.240;8.444;2023-10-19T11:57:31;8.88;;;3.20;;
5827;SDS011;42583;50.240;8.444;2023-10-19T12:12:32;16.30;;;3.88;;
5827;SDS011;42583;50.240;8.444;2023-10-19T12:27:33;9.43;;;4.40;;
5827;SDS011;42583;50.240;8.444;2023-10-19T12:42:34;9.13;;;3.80;;
5827;SDS011;42583;50.240;8.444;2023-10-19T12:57:37;9.35;;;4.20;;
5827;SDS011;42583;50.240;8.444;2023-10-19T13:12:38;9.68;;;3.90;;
5827;SDS011;42583;50.240;8.444;2023-10-19T13:27:39;8.25;;;3.90;;
5827;SDS011;42583;50.240;8.444;2023-10-19T13:42:41;9.50;;;4.90;;
5827;SDS011;42583;50.240;8.444;2023-10-19T13:57:47;13.00;;;7.70;;
5827;SDS011;42583;50.240;8.444;2023-10-19T14:12:48;14.43;;;9.95;;
5827;SDS011;42583;50.240;8.444;2023-10-19T14:27:50;16.90;;;12.10;;
5827;SDS011;42583;50.240;8.444;2023-10-19T14:42:51;18.63;;;11.18;;
5827;SDS011;42583;50.240;8.444;2023-10-19T14:57:54;8.50;;;5.10;;
5827;SDS011;42583;50.240;8.444;2023-10-19T15:12:55;9.23;;;5.90;;
5827;SDS011;42583;50.240;8.444;2023-10-19T15:27:56;9.98;;;5.32;;
5827;SDS011;42583;50.240;8.444;2023-10-19T15:42:56;6.45;;;4.28;;
5827;SDS011;42583;50.240;8.444;2023-10-19T15:57:59;1.50;;;1.20;;
5827;SDS011;42583;50.240;8.444;2023-10-19T16:13:00;2.00;;;1.30;;
5827;SDS011;42583;50.240;8.444;2023-10-19T16:28:01;0.80;;;0.80;;
5827;SDS011;42583;50.240;8.444;2023-10-19T16:43:01;7.82;;;5.18;;
5827;SDS011;42583;50.240;8.444;2023-10-19T16:58:03;11.05;;;6.88;;
5827;SDS011;42583;50.240;8.444;2023-10-19T17:13:03;6.13;;;4.40;;
5827;SDS011;42583;50.240;8.444;2023-10-19T17:28:04;5.97;;;4.60;;
5827;SDS011;42583;50.240;8.444;2023-10-19T17:43:06;6.45;;;4.22;;
5827;SDS011;42583;50.240;8.444;2023-10-19T17:58:09;7.32;;;5.22;;
5827;SDS011;42583;50.240;8.444;2023-10-19T18:13:10;125.32;;;10.50;;
5827;SDS011;42583;50.240;8.444;2023-10-19T18:28:11;620.25;;;14.73;;
5827;SDS011;42583;50.240;8.444;2023-10-19T18:43:12;683.58;;;16.23;;
5827;SDS011;42583;50.240;8.444;2023-10-19T18:58:12;500.88;;;16.25;;
5827;SDS011;42583;50.240;8.444;2023-10-19T19:13:13;400.80;;;16.98;;
5827;SDS011;42583;50.240;8.444;2023-10-19T19:28:13;597.42;;;20.90;;
5827;SDS011;42583;50.240;8.444;2023-10-19T19:43:14;361.25;;;17.98;;
5827;SDS011;42583;50.240;8.444;2023-10-19T19:58:14;25.17;;;10.18;;
5827;SDS011;42583;50.240;8.444;2023-10-19T20:13:16;26.60;;;9.20;;
5827;SDS011;42583;50.240;8.444;2023-10-19T20:28:17;19.75;;;7.95;;
5827;SDS011;42583;50.240;8.444;2023-10-19T20:43:17;9.18;;;6.22;;
5827;SDS011;42583;50.240;8.444;2023-10-19T20:58:21;9.20;;;6.50;;
5827;SDS011;42583;50.240;8.444;2023-10-19T21:13:22;29.98;;;6.97;;
5827;SDS011;42583;50.240;8.444;2023-10-19T21:28:23;13.18;;;6.25;;
5827;SDS011;42583;50.240;8.444;2023-10-19T21:43:24;228.98;;;9.75;;
5827;SDS011;42583;50.240;8.444;2023-10-19T21:58:24;13.60;;;4.40;;
5827;SDS011;42583;50.240;8.444;2023-10-19T22:13:25;127.43;;;4.93;;
5827;SDS011;42583;50.240;8.444;2023-10-19T22:28:26;1.63;;;1.20;;
5827;SDS011;42583;50.240;8.444;2023-10-19T22:43:27;142.52;;;3.58;;
5827;SDS011;42583;50.240;8.444;2023-10-19T22:58:28;147.07;;;4.18;;
5827;SDS011;42583;50.240;8.444;2023-10-19T23:13:28;98.78;;;3.17;;
5827;SDS011;42583;50.240;8.444;2023-10-19T23:28:31;4.78;;;2.95;;
5827;SDS011;42583;50.240;8.444;2023-10-19T23:43:34;7.05;;;5.18;;
5827;SDS011;42583;50.240;8.444;2023-10-19T23:58:34;5.15;;;3.40;;
